createdAt,value
2022-07-30T00:00:40.227Z,23.79
2022-07-30T00:03:08.553Z,24.01
2022-07-30T00:05:38.117Z,23.85
2022-07-30T00:08:06.480Z,23.77
2022-07-30T00:10:34.648Z,23.74
2022-07-30T00:13:03.004Z,23.60
2022-07-30T00:15:32.133Z,23.59
2022-07-30T00:18:00.701Z,23.84
2022-07-30T00:20:29.067Z,23.74
2022-07-30T00:22:58.935Z,23.84
2022-07-30T00:25:27.129Z,23.85
2022-07-30T00:27:55.498Z,23.67
2022-07-30T00:30:23.934Z,23.99
2022-07-30T00:32:52.235Z,23.88
2022-07-30T00:35:20.660Z,23.98
2022-07-30T00:37:49.420Z,23.89
2022-07-30T00:40:19.332Z,23.94
2022-07-30T00:42:48.867Z,23.87
2022-07-30T00:45:18.401Z,24.03
2022-07-30T00:47:47.243Z,24.07
2022-07-30T00:50:16.767Z,24.14
2022-07-30T00:52:45.600Z,24.12
2022-07-30T00:55:15.826Z,24.19
2022-07-30T00:57:45.759Z,24.16
2022-07-30T01:00:17.178Z,24.12
2022-07-30T01:02:45.711Z,24.07
2022-07-30T01:05:14.080Z,24.04
2022-07-30T01:07:42.592Z,23.71
2022-07-30T01:10:12.717Z,23.74
2022-07-30T01:12:41.558Z,23.91
2022-07-30T01:15:12.047Z,23.90
2022-07-30T01:17:40.601Z,23.74
2022-07-30T01:20:12.215Z,23.84
2022-07-30T01:22:49.483Z,24.17
2022-07-30T01:25:23.614Z,24.23
2022-07-30T01:27:57.474Z,24.35
2022-07-30T01:30:29.389Z,24.11
2022-07-30T01:32:59.179Z,24.40
2022-07-30T01:35:29.634Z,24.40
2022-07-30T01:37:58.910Z,23.82
2022-07-30T01:40:29.012Z,23.97
2022-07-30T01:43:02.484Z,23.80
2022-07-30T01:45:32.324Z,23.76
2022-07-30T01:48:11.398Z,23.48
2022-07-30T01:50:44.578Z,23.52
2022-07-30T01:53:17.010Z,23.79
2022-07-30T01:55:46.098Z,23.58
2022-07-30T01:58:18.397Z,23.44
2022-07-30T02:00:50.700Z,23.72
2022-07-30T02:03:19.157Z,23.47
2022-07-30T02:05:54.374Z,23.81
2022-07-30T02:08:26.841Z,23.62
2022-07-30T02:10:59.577Z,23.39
2022-07-30T02:13:31.239Z,23.55
2022-07-30T02:16:03.057Z,23.41
2022-07-30T02:18:34.590Z,23.47
2022-07-30T02:21:11.586Z,23.61
2022-07-30T02:23:43.502Z,23.76
2022-07-30T02:26:16.111Z,23.47
2022-07-30T02:28:48.708Z,23.77
2022-07-30T02:31:19.156Z,23.94
2022-07-30T02:33:50.749Z,24.04
2022-07-30T02:36:19.771Z,23.94
2022-07-30T02:38:51.566Z,24.22
2022-07-30T02:41:21.877Z,23.94
2022-07-30T02:43:52.698Z,23.94
2022-07-30T02:46:23.155Z,23.15
2022-07-30T02:49:11.468Z,22.94
2022-07-30T02:51:42.503Z,22.70
2022-07-30T02:54:12.699Z,22.96
2022-07-30T02:56:41.906Z,22.86
2022-07-30T02:59:13.041Z,22.49
2022-07-30T03:01:43.199Z,22.65
2022-07-30T03:04:12.673Z,23.01
2022-07-30T03:06:41.487Z,23.13
2022-07-30T03:09:11.180Z,23.18
2022-07-30T03:11:45.526Z,23.40
2022-07-30T03:14:15.127Z,23.32
2022-07-30T03:16:46.026Z,23.46
2022-07-30T03:19:15.448Z,23.48
2022-07-30T03:21:44.620Z,23.44
2022-07-30T03:24:14.574Z,23.44
2022-07-30T03:26:43.801Z,23.44
2022-07-30T03:29:14.024Z,23.41
2022-07-30T03:31:42.692Z,23.49
2022-07-30T03:34:14.459Z,23.33
2022-07-30T03:36:43.354Z,23.22
2022-07-30T03:39:12.291Z,23.28
2022-07-30T03:41:40.736Z,23.38
2022-07-30T03:44:15.218Z,23.23
2022-07-30T03:46:43.789Z,23.24
2022-07-30T03:49:12.821Z,23.22
2022-07-30T03:51:46.385Z,23.35
2022-07-30T03:54:16.609Z,23.47
2022-07-30T03:57:20.542Z,23.29
2022-07-30T03:59:52.297Z,23.26
2022-07-30T04:02:22.587Z,22.97
2022-07-30T04:05:21.377Z,23.15
2022-07-30T04:07:51.151Z,22.75
2022-07-30T04:10:22.158Z,23.12
2022-07-30T04:13:10.387Z,22.89
2022-07-30T04:16:37.178Z,23.11
2022-07-30T04:18:40.029Z,23.23
2022-07-30T04:21:17.104Z,23.15
2022-07-30T04:24:02.991Z,23.27
2022-07-30T04:26:36.647Z,23.08
2022-07-30T04:29:07.686Z,23.33
2022-07-30T04:31:40.945Z,23.41
2022-07-30T04:34:48.457Z,23.23
2022-07-30T04:37:19.887Z,23.22
2022-07-30T04:39:50.004Z,23.24
2022-07-30T04:42:18.649Z,23.19
2022-07-30T04:44:53.528Z,23.36
2022-07-30T04:47:46.344Z,23.45
2022-07-30T04:50:36.214Z,23.57
2022-07-30T04:53:07.513Z,23.57
2022-07-30T04:55:42.418Z,23.57
2022-07-30T04:58:12.533Z,23.47
2022-07-30T05:00:44.327Z,23.40
2022-07-30T05:03:18.507Z,23.44
2022-07-30T05:05:57.132Z,23.51
2022-07-30T05:08:27.250Z,23.61
2022-07-30T05:10:56.057Z,23.71
2022-07-30T05:13:34.083Z,23.73
2022-07-30T05:16:05.425Z,23.64
2022-07-30T05:18:35.226Z,23.70
2022-07-30T05:21:03.467Z,23.68
2022-07-30T05:23:37.760Z,23.82
2022-07-30T05:26:27.526Z,23.80
2022-07-30T05:28:57.970Z,23.67
2022-07-30T05:31:32.988Z,23.64
2022-07-30T05:34:05.732Z,23.40
2022-07-30T05:36:42.850Z,23.36
2022-07-30T05:39:13.376Z,23.38
2022-07-30T05:41:53.714Z,23.43
2022-07-30T05:44:37.526Z,23.42
2022-07-30T05:47:05.838Z,23.39
2022-07-30T05:49:35.751Z,23.71
2022-07-30T05:52:08.951Z,23.85
2022-07-30T05:54:37.135Z,23.34
2022-07-30T05:57:31.870Z,23.57
2022-07-30T06:00:00.078Z,23.48
2022-07-30T06:02:50.742Z,23.28
2022-07-30T06:05:29.397Z,23.08
2022-07-30T06:08:00.824Z,23.26
2022-07-30T06:10:30.422Z,23.31
2022-07-30T06:12:59.799Z,23.45
2022-07-30T06:15:28.075Z,23.70
2022-07-30T06:18:01.464Z,23.64
2022-07-30T06:20:43.619Z,23.15
2022-07-30T06:23:30.495Z,23.33
2022-07-30T06:26:10.153Z,23.34
2022-07-30T06:28:39.238Z,23.24
2022-07-30T06:31:26.322Z,23.27
2022-07-30T06:33:54.664Z,23.33
2022-07-30T06:36:24.984Z,23.07
2022-07-30T06:39:01.686Z,23.04
2022-07-30T06:41:48.673Z,23.19
2022-07-30T06:44:17.027Z,23.13
2022-07-30T06:47:11.460Z,23.20
2022-07-30T06:49:40.977Z,23.05
2022-07-30T06:52:18.302Z,23.25
2022-07-30T06:54:51.443Z,23.26
2022-07-30T06:57:42.428Z,23.26
2022-07-30T07:00:29.672Z,23.31
2022-07-30T07:02:59.940Z,23.41
2022-07-30T07:05:36.937Z,23.52
2022-07-30T07:08:07.319Z,23.52
2022-07-30T07:10:39.727Z,23.41
2022-07-30T07:13:26.498Z,23.41
2022-07-30T07:15:55.439Z,23.56
2022-07-30T07:18:25.328Z,23.46
2022-07-30T07:21:01.864Z,23.53
2022-07-30T07:23:39.783Z,23.52
2022-07-30T07:26:27.168Z,23.38
2022-07-30T07:28:55.670Z,23.47
2022-07-30T07:32:06.273Z,23.54
2022-07-30T07:34:16.977Z,23.66
2022-07-30T07:36:45.480Z,23.68
2022-07-30T07:39:15.141Z,23.77
2022-07-30T07:41:48.903Z,23.90
2022-07-30T07:44:22.033Z,24.00
2022-07-30T07:46:50.339Z,24.07
2022-07-30T07:49:18.778Z,24.25
2022-07-30T07:51:50.706Z,24.22
2022-07-30T07:54:23.260Z,24.11
2022-07-30T07:56:56.706Z,23.82
2022-07-30T07:59:42.997Z,24.25
2022-07-30T08:02:26.668Z,24.39
2022-07-30T08:05:07.966Z,24.52
2022-07-30T08:07:46.223Z,24.51
2022-07-30T08:10:19.165Z,24.35
2022-07-30T08:12:47.366Z,24.59
2022-07-30T08:15:34.646Z,24.78
2022-07-30T08:18:26.023Z,24.52
2022-07-30T08:21:13.017Z,24.41
2022-07-30T08:23:44.246Z,24.21
2022-07-30T08:26:14.228Z,24.45
2022-07-30T08:28:43.232Z,24.33
2022-07-30T08:31:11.567Z,24.39
2022-07-30T08:33:39.905Z,24.69
2022-07-30T08:36:10.206Z,24.80
2022-07-30T08:38:40.270Z,25.36
2022-07-30T08:41:09.550Z,25.61
2022-07-30T08:43:39.335Z,25.70
2022-07-30T08:46:14.258Z,25.74
2022-07-30T08:49:11.294Z,25.94
2022-07-30T08:51:41.530Z,26.00
2022-07-30T08:54:13.150Z,26.36
2022-07-30T08:56:42.461Z,26.62
2022-07-30T08:59:12.357Z,26.45
2022-07-30T09:01:40.722Z,26.11
2022-07-30T09:04:08.983Z,25.91
2022-07-30T09:06:37.713Z,26.43
2022-07-30T09:09:07.322Z,26.18
2022-07-30T09:11:36.539Z,26.73
2022-07-30T09:14:13.756Z,27.52
2022-07-30T09:16:43.382Z,27.58
2022-07-30T09:19:17.620Z,27.85
2022-07-30T09:21:56.884Z,27.23
2022-07-30T09:24:42.986Z,27.26
2022-07-30T09:27:45.206Z,28.13
2022-07-30T09:30:48.510Z,28.43
2022-07-30T09:33:37.869Z,28.64
2022-07-30T09:36:25.412Z,28.40
2022-07-30T09:39:12.338Z,28.27
2022-07-30T09:42:19.131Z,28.82
2022-07-30T09:44:47.706Z,29.40
2022-07-30T09:50:11.716Z,29.79
2022-07-30T09:52:49.019Z,30.15
2022-07-30T09:55:31.766Z,29.71
2022-07-30T09:58:03.000Z,28.29
2022-07-30T10:00:34.348Z,29.14
2022-07-30T10:03:21.793Z,29.94
2022-07-30T10:06:33.782Z,29.72
2022-07-30T10:09:14.453Z,29.54
2022-07-30T10:11:46.553Z,29.54
2022-07-30T10:14:15.557Z,29.37
2022-07-30T10:16:43.979Z,29.47
2022-07-30T10:19:15.946Z,28.63
2022-07-30T10:22:11.671Z,28.85
2022-07-30T10:24:49.204Z,29.44
2022-07-30T10:27:36.479Z,29.04
2022-07-30T10:30:20.248Z,29.06
2022-07-30T10:32:58.314Z,29.39
2022-07-30T10:35:34.511Z,29.24
2022-07-30T10:38:09.165Z,29.60
2022-07-30T10:40:39.829Z,29.32
2022-07-30T10:43:23.484Z,29.00
2022-07-30T10:46:05.917Z,29.01
2022-07-30T10:48:39.595Z,29.15
2022-07-30T10:51:08.386Z,29.59
2022-07-30T10:53:39.825Z,29.59
2022-07-30T10:56:16.342Z,29.06
2022-07-30T10:59:07.976Z,28.09
2022-07-30T11:02:10.787Z,28.18
2022-07-30T11:04:41.463Z,27.99
2022-07-30T11:07:31.675Z,28.15
2022-07-30T11:10:04.876Z,28.04
2022-07-30T11:12:56.085Z,28.50
2022-07-30T11:15:24.374Z,28.35
2022-07-30T11:18:12.850Z,28.31
2022-07-30T11:20:43.236Z,28.70
2022-07-30T11:23:40.056Z,28.62
2022-07-30T11:26:14.183Z,28.96
2022-07-30T11:28:45.164Z,28.78
2022-07-30T11:31:56.377Z,27.79
2022-07-30T11:34:26.983Z,27.50
2022-07-30T11:37:21.733Z,28.33
2022-07-30T11:40:08.477Z,28.07
2022-07-30T11:42:39.805Z,28.35
2022-07-30T11:45:30.933Z,27.98
2022-07-30T11:48:03.212Z,27.84
2022-07-30T11:50:33.660Z,28.00
2022-07-30T11:53:03.663Z,28.51
2022-07-30T11:55:33.749Z,28.42
2022-07-30T11:58:07.383Z,28.37
2022-07-30T12:00:38.613Z,28.01
2022-07-30T12:03:14.331Z,27.81
2022-07-30T12:05:44.074Z,28.26
2022-07-30T12:08:35.405Z,28.84
2022-07-30T12:11:02.839Z,29.00
2022-07-30T12:13:44.214Z,28.69
2022-07-30T12:16:17.598Z,28.78
2022-07-30T12:18:46.625Z,29.58
2022-07-30T12:21:16.359Z,30.36
2022-07-30T12:23:45.151Z,30.86
2022-07-30T12:26:22.440Z,31.06
2022-07-30T12:28:52.380Z,30.82
2022-07-30T12:31:20.603Z,30.81
2022-07-30T12:33:48.959Z,30.24
2022-07-30T12:36:28.509Z,30.42
2022-07-30T12:38:58.107Z,30.75
2022-07-30T12:41:44.013Z,31.07
2022-07-30T12:44:37.628Z,30.84
2022-07-30T12:47:07.241Z,30.77
2022-07-30T12:49:36.615Z,29.82
2022-07-30T12:52:27.596Z,29.50
2022-07-30T12:55:15.055Z,30.19
2022-07-30T12:58:07.178Z,29.81
2022-07-30T13:00:52.376Z,30.96
2022-07-30T13:03:21.979Z,30.28
2022-07-30T13:05:51.600Z,30.79
2022-07-30T13:08:56.360Z,30.91
2022-07-30T13:11:25.598Z,31.44
2022-07-30T13:13:54.525Z,31.11
2022-07-30T13:16:24.259Z,31.69
2022-07-30T13:18:52.460Z,31.49
2022-07-30T13:21:20.747Z,31.16
2022-07-30T13:23:48.947Z,30.51
2022-07-30T13:26:17.443Z,30.91
2022-07-30T13:28:46.637Z,31.74
2022-07-30T13:31:15.652Z,31.73
2022-07-30T13:33:45.406Z,31.98
2022-07-30T13:36:13.714Z,33.14
2022-07-30T13:38:42.783Z,33.57
2022-07-30T13:41:11.143Z,33.95
2022-07-30T13:43:40.399Z,34.65
2022-07-30T13:46:08.629Z,34.38
2022-07-30T13:48:36.869Z,34.20
2022-07-30T13:51:06.948Z,34.63
2022-07-30T13:53:35.193Z,34.71
2022-07-30T13:56:03.646Z,35.11
2022-07-30T13:58:36.026Z,34.88
2022-07-30T14:01:07.159Z,34.81
2022-07-30T14:03:35.824Z,34.32
2022-07-30T14:06:10.959Z,34.56
2022-07-30T14:08:41.162Z,34.04
2022-07-30T14:11:09.550Z,35.09
2022-07-30T14:13:38.025Z,35.16
2022-07-30T14:16:22.708Z,34.55
2022-07-30T14:18:55.697Z,34.61
2022-07-30T14:21:23.999Z,34.91
2022-07-30T14:23:53.561Z,34.32
2022-07-30T14:26:21.830Z,34.36
2022-07-30T14:28:50.079Z,34.30
2022-07-30T14:31:18.246Z,34.72
2022-07-30T14:33:46.637Z,33.95
2022-07-30T14:36:15.182Z,34.13
2022-07-30T14:38:43.390Z,34.48
2022-07-30T14:41:13.006Z,34.63
2022-07-30T14:43:42.260Z,34.66
2022-07-30T14:46:10.417Z,34.04
2022-07-30T14:48:38.630Z,34.25
2022-07-30T14:51:16.209Z,33.57
2022-07-30T14:53:50.338Z,32.07
2022-07-30T14:56:21.472Z,32.06
2022-07-30T14:58:49.861Z,31.75
2022-07-30T15:01:18.186Z,31.18
2022-07-30T15:03:47.174Z,31.52
2022-07-30T15:06:16.090Z,31.69
2022-07-30T15:08:46.160Z,31.18
2022-07-30T15:11:14.645Z,30.88
2022-07-30T15:13:50.281Z,30.77
2022-07-30T15:16:19.492Z,30.32
2022-07-30T15:18:47.948Z,30.57
2022-07-30T15:21:16.213Z,30.11
2022-07-30T15:23:44.531Z,30.93
2022-07-30T15:26:13.039Z,31.74
2022-07-30T15:28:41.344Z,31.68
2022-07-30T15:31:10.990Z,31.41
2022-07-30T15:33:43.054Z,31.78
2022-07-30T15:36:11.819Z,31.09
2022-07-30T15:38:40.457Z,31.05
2022-07-30T15:41:13.277Z,31.72
2022-07-30T15:43:42.020Z,32.03
2022-07-30T15:46:11.676Z,32.05
2022-07-30T15:48:39.926Z,32.51
2022-07-30T15:51:08.530Z,32.28
2022-07-30T15:53:36.725Z,31.74
2022-07-30T15:56:05.297Z,31.70
2022-07-30T15:58:33.881Z,30.96
2022-07-30T16:01:02.229Z,31.47
2022-07-30T16:03:31.896Z,31.64
2022-07-30T16:06:00.147Z,31.74
2022-07-30T16:08:28.304Z,31.33
2022-07-30T16:10:56.619Z,31.22
2022-07-30T16:13:24.816Z,31.25
2022-07-30T16:15:53.137Z,31.83
2022-07-30T16:18:21.379Z,32.07
2022-07-30T16:20:51.028Z,32.02
2022-07-30T16:23:21.511Z,30.89
2022-07-30T16:25:50.172Z,30.90
2022-07-30T16:28:18.406Z,30.85
2022-07-30T16:30:50.986Z,30.59
2022-07-30T16:33:20.562Z,30.24
2022-07-30T16:35:52.495Z,30.17
2022-07-30T16:38:23.171Z,30.61
2022-07-30T16:40:51.694Z,31.64
2022-07-30T16:43:20.436Z,32.08
2022-07-30T16:45:48.991Z,32.04
2022-07-30T16:48:17.490Z,32.63
2022-07-30T16:50:45.781Z,32.66
2022-07-30T16:53:15.514Z,31.88
2022-07-30T16:55:45.144Z,31.36
2022-07-30T16:58:13.625Z,31.38
2022-07-30T17:00:42.542Z,31.43
2022-07-30T17:03:11.989Z,30.98
2022-07-30T17:05:48.618Z,31.08
2022-07-30T17:08:18.392Z,31.09
2022-07-30T17:10:47.801Z,31.13
2022-07-30T17:13:16.242Z,31.44
2022-07-30T17:15:46.777Z,31.20
2022-07-30T17:18:15.653Z,31.78
2022-07-30T17:20:44.144Z,31.79
2022-07-30T17:23:12.425Z,31.60
2022-07-30T17:25:42.066Z,31.21
2022-07-30T17:28:10.475Z,31.45
2022-07-30T17:30:38.665Z,31.47
2022-07-30T17:33:07.022Z,31.24
2022-07-30T17:35:35.262Z,30.86
2022-07-30T17:38:03.537Z,30.20
2022-07-30T17:40:32.070Z,30.17
2022-07-30T17:43:04.647Z,30.36
2022-07-30T17:45:33.724Z,30.30
2022-07-30T17:48:02.408Z,30.48
2022-07-30T17:50:31.294Z,30.21
2022-07-30T17:52:59.653Z,30.11
2022-07-30T17:55:29.179Z,29.49
2022-07-30T17:57:57.714Z,29.42
2022-07-30T18:00:27.483Z,29.52
2022-07-30T18:02:55.936Z,29.36
2022-07-30T18:05:24.186Z,28.63
2022-07-30T18:07:52.512Z,29.10
2022-07-30T18:10:23.032Z,28.72
2022-07-30T18:12:53.046Z,28.67
2022-07-30T18:15:21.954Z,27.87
2022-07-30T18:17:52.475Z,28.09
2022-07-30T18:20:20.662Z,28.20
2022-07-30T18:22:51.797Z,27.99
2022-07-30T18:25:20.170Z,28.00
2022-07-30T18:27:52.468Z,28.05
2022-07-30T18:30:20.759Z,27.92
2022-07-30T18:32:49.425Z,27.47
2022-07-30T18:35:19.183Z,27.46
2022-07-30T18:37:48.489Z,27.28
2022-07-30T18:40:23.688Z,27.31
2022-07-30T18:42:52.506Z,27.04
2022-07-30T18:45:20.842Z,26.90
2022-07-30T18:47:49.231Z,26.83
2022-07-30T18:50:19.602Z,26.73
2022-07-30T18:52:47.874Z,26.65
2022-07-30T18:55:17.440Z,26.53
2022-07-30T18:57:45.913Z,26.48
2022-07-30T19:00:34.002Z,26.12
2022-07-30T19:03:03.425Z,26.22
2022-07-30T19:05:33.119Z,26.09
2022-07-30T19:08:01.344Z,26.07
2022-07-30T19:10:29.705Z,25.86
2022-07-30T19:12:57.917Z,25.79
2022-07-30T19:15:26.312Z,25.90
2022-07-30T19:17:54.516Z,25.92
2022-07-30T19:20:23.571Z,25.77
2022-07-30T19:22:55.431Z,25.48
2022-07-30T19:25:23.680Z,25.49
2022-07-30T19:27:52.032Z,25.54
2022-07-30T19:30:20.302Z,25.02
2022-07-30T19:32:48.673Z,24.86
2022-07-30T19:35:16.886Z,25.13
2022-07-30T19:37:45.213Z,25.18
2022-07-30T19:40:15.207Z,25.03
2022-07-30T19:42:43.592Z,25.09
2022-07-30T19:45:13.201Z,25.06
2022-07-30T19:47:42.152Z,25.06
2022-07-30T19:50:11.616Z,24.93
2022-07-30T19:52:51.009Z,24.97
2022-07-30T19:55:35.377Z,24.86
2022-07-30T19:58:16.051Z,24.83
2022-07-30T20:00:49.234Z,24.65
2022-07-30T20:03:25.349Z,24.57
2022-07-30T20:08:44.619Z,24.48
2022-07-30T20:11:34.681Z,24.49
2022-07-30T20:14:02.955Z,24.57
2022-07-30T20:16:31.143Z,24.62
2022-07-30T20:18:59.754Z,24.65
2022-07-30T20:22:06.789Z,24.66
2022-07-30T20:24:20.066Z,24.49
2022-07-30T20:26:50.615Z,24.15
2022-07-30T20:29:20.660Z,24.09
2022-07-30T20:32:00.604Z,23.85
2022-07-30T20:34:30.840Z,23.70
2022-07-30T20:37:13.876Z,23.54
2022-07-30T20:39:49.055Z,23.73
2022-07-30T20:42:18.971Z,23.40
2022-07-30T20:44:50.875Z,23.55
2022-07-30T20:47:34.416Z,23.30
2022-07-30T20:50:09.449Z,23.35
2022-07-30T20:52:40.302Z,23.30
2022-07-30T20:55:09.768Z,23.21
2022-07-30T20:57:58.057Z,23.00
2022-07-30T21:00:33.289Z,23.16
2022-07-30T21:03:03.313Z,22.96
2022-07-30T21:05:31.934Z,22.85
2022-07-30T21:08:00.686Z,22.91
2022-07-30T21:10:29.197Z,22.78
2022-07-30T21:13:03.399Z,22.71
2022-07-30T21:15:33.005Z,22.52
2022-07-30T21:18:01.865Z,22.58
2022-07-30T21:20:31.235Z,22.80
2022-07-30T21:23:05.395Z,22.78
2022-07-30T21:25:34.102Z,22.83
2022-07-30T21:28:03.775Z,22.53
2022-07-30T21:30:33.482Z,22.43
2022-07-30T21:33:01.808Z,22.59
2022-07-30T21:35:32.097Z,22.60
2022-07-30T21:38:00.844Z,22.53
2022-07-30T21:40:29.506Z,22.17
2022-07-30T21:42:57.846Z,22.18
2022-07-30T21:45:37.966Z,22.16
2022-07-30T21:48:09.145Z,22.32
2022-07-30T21:50:40.155Z,22.16
2022-07-30T21:53:08.473Z,22.02
2022-07-30T21:55:53.004Z,21.97
2022-07-30T21:58:25.804Z,21.87
2022-07-30T22:01:16.221Z,21.91
2022-07-30T22:04:05.103Z,21.65
2022-07-30T22:06:34.207Z,21.69
2022-07-30T22:09:03.073Z,21.52
2022-07-30T22:11:42.815Z,21.50
2022-07-30T22:14:14.008Z,21.46
2022-07-30T22:16:46.480Z,21.50
2022-07-30T22:19:15.458Z,21.38
2022-07-30T22:21:46.438Z,21.34
2022-07-30T22:24:28.860Z,21.34
2022-07-30T22:27:01.645Z,21.21
2022-07-30T22:32:21.010Z,21.75
2022-07-30T22:34:50.102Z,21.57
2022-07-30T22:37:21.208Z,21.33
2022-07-30T22:39:51.960Z,21.45
2022-07-30T22:42:24.122Z,21.65
2022-07-30T22:44:54.815Z,21.56
2022-07-30T22:47:51.277Z,21.72
2022-07-30T22:50:14.883Z,21.82
2022-07-30T22:52:52.432Z,21.53
2022-07-30T22:55:23.578Z,21.37
2022-07-30T22:57:52.996Z,21.67
2022-07-30T23:00:27.683Z,21.15
2022-07-30T23:02:58.725Z,21.33
2022-07-30T23:05:27.019Z,21.40
2022-07-30T23:07:55.427Z,21.48
2022-07-30T23:12:15.853Z,24.87
2022-07-30T23:12:28.823Z,21.51
2022-07-30T23:12:31.099Z,21.36
2022-07-30T23:13:12.749Z,21.49
2022-07-30T23:15:40.896Z,21.59
2022-07-30T23:18:10.561Z,21.77
2022-07-30T23:20:38.722Z,21.71
2022-07-30T23:23:11.631Z,21.50
2022-07-30T23:25:40.679Z,21.43
2022-07-30T23:28:09.021Z,21.45
2022-07-30T23:30:37.256Z,21.37
2022-07-30T23:33:05.729Z,21.23
2022-07-30T23:35:36.164Z,21.29
2022-07-30T23:38:04.514Z,21.40
2022-07-30T23:40:33.191Z,21.49
2022-07-30T23:43:01.466Z,21.40
2022-07-30T23:45:29.942Z,21.26
2022-07-30T23:48:02.423Z,21.23
2022-07-30T23:50:32.346Z,21.28
2022-07-30T23:53:03.291Z,21.25
2022-07-30T23:55:32.808Z,21.14
2022-07-30T23:58:01.241Z,21.20
